sensor_id;sensor_type;location;lat;lon;timestamp;temperature;humidity
70074;DHT22;57445;51.058;3.698;2022-12-07T00:01:44;6.80;99.90
70074;DHT22;57445;51.058;3.698;2022-12-07T00:04:14;6.80;99.90
70074;DHT22;57445;51.058;3.698;2022-12-07T00:07:01;6.80;99.90
70074;DHT22;57445;51.058;3.698;2022-12-07T00:09:29;6.80;99.90
70074;DHT22;57445;51.058;3.698;2022-12-07T00:12:01;7.30;99.90
70074;DHT22;57445;51.058;3.698;2022-12-07T00:14:29;7.30;99.90
70074;DHT22;57445;51.058;3.698;2022-12-07T00:16:56;7.40;99.90
70074;DHT22;57445;51.058;3.698;2022-12-07T00:19:24;7.40;99.90
70074;DHT22;57445;51.058;3.698;2022-12-07T00:21:52;7.20;99.90
70074;DHT22;57445;51.058;3.698;2022-12-07T00:24:21;7.20;99.90
70074;DHT22;57445;51.058;3.698;2022-12-07T00:26:49;7.00;99.90
70074;DHT22;57445;51.058;3.698;2022-12-07T00:29:18;6.90;99.90
70074;DHT22;57445;51.058;3.698;2022-12-07T00:31:46;7.00;99.90
70074;DHT22;57445;51.058;3.698;2022-12-07T00:34:16;7.30;99.90
70074;DHT22;57445;51.058;3.698;2022-12-07T00:36:49;7.00;99.90
70074;DHT22;57445;51.058;3.698;2022-12-07T00:39:17;7.10;99.90
70074;DHT22;57445;51.058;3.698;2022-12-07T00:41:46;7.00;99.90
70074;DHT22;57445;51.058;3.698;2022-12-07T00:44:14;6.80;99.90
70074;DHT22;57445;51.058;3.698;2022-12-07T00:46:46;6.70;99.90
70074;DHT22;57445;51.058;3.698;2022-12-07T00:49:14;6.60;99.90
70074;DHT22;57445;51.058;3.698;2022-12-07T00:51:42;6.60;99.90
70074;DHT22;57445;51.058;3.698;2022-12-07T00:54:09;6.60;99.90
70074;DHT22;57445;51.058;3.698;2022-12-07T00:56:37;6.70;99.90
70074;DHT22;57445;51.058;3.698;2022-12-07T00:59:06;6.50;99.90
70074;DHT22;57445;51.058;3.698;2022-12-07T01:01:35;6.40;99.90
70074;DHT22;57445;51.058;3.698;2022-12-07T01:04:03;6.40;99.90
70074;DHT22;57445;51.058;3.698;2022-12-07T01:06:31;6.40;99.90
70074;DHT22;57445;51.058;3.698;2022-12-07T01:08:59;6.40;99.90
70074;DHT22;57445;51.058;3.698;2022-12-07T01:11:29;6.40;99.90
70074;DHT22;57445;51.058;3.698;2022-12-07T01:14:17;6.40;99.90
70074;DHT22;57445;51.058;3.698;2022-12-07T01:16:49;6.30;99.90
70074;DHT22;57445;51.058;3.698;2022-12-07T01:19:17;6.40;99.90
70074;DHT22;57445;51.058;3.698;2022-12-07T01:21:51;6.30;99.90
70074;DHT22;57445;51.058;3.698;2022-12-07T01:24:19;6.20;99.90
70074;DHT22;57445;51.058;3.698;2022-12-07T01:26:51;6.20;99.90
70074;DHT22;57445;51.058;3.698;2022-12-07T01:29:25;6.20;99.90
70074;DHT22;57445;51.058;3.698;2022-12-07T01:31:52;6.20;99.90
70074;DHT22;57445;51.058;3.698;2022-12-07T01:34:21;6.00;99.90
70074;DHT22;57445;51.058;3.698;2022-12-07T01:36:53;6.10;99.90
70074;DHT22;57445;51.058;3.698;2022-12-07T01:39:21;6.30;99.90
70074;DHT22;57445;51.058;3.698;2022-12-07T01:41:49;6.70;99.90
70074;DHT22;57445;51.058;3.698;2022-12-07T01:44:20;6.70;99.90
70074;DHT22;57445;51.058;3.698;2022-12-07T01:46:50;6.50;99.90
70074;DHT22;57445;51.058;3.698;2022-12-07T01:49:27;6.40;99.90
70074;DHT22;57445;51.058;3.698;2022-12-07T01:52:03;6.20;99.90
70074;DHT22;57445;51.058;3.698;2022-12-07T01:54:33;6.40;99.90
70074;DHT22;57445;51.058;3.698;2022-12-07T01:57:06;6.40;99.90
70074;DHT22;57445;51.058;3.698;2022-12-07T01:59:35;6.40;99.90
70074;DHT22;57445;51.058;3.698;2022-12-07T02:02:09;6.40;99.90
70074;DHT22;57445;51.058;3.698;2022-12-07T02:04:44;6.60;99.90
70074;DHT22;57445;51.058;3.698;2022-12-07T02:07:17;6.50;99.90
70074;DHT22;57445;51.058;3.698;2022-12-07T02:09:44;6.60;99.90
70074;DHT22;57445;51.058;3.698;2022-12-07T02:12:12;7.10;99.90
70074;DHT22;57445;51.058;3.698;2022-12-07T02:14:41;7.00;99.90
70074;DHT22;57445;51.058;3.698;2022-12-07T02:17:20;6.80;99.90
70074;DHT22;57445;51.058;3.698;2022-12-07T02:26:24;7.10;99.90
70074;DHT22;57445;51.058;3.698;2022-12-07T02:29:21;7.20;99.90
70074;DHT22;57445;51.058;3.698;2022-12-07T02:31:59;7.20;99.90
70074;DHT22;57445;51.058;3.698;2022-12-07T02:34:37;7.20;99.90
70074;DHT22;57445;51.058;3.698;2022-12-07T02:37:19;7.20;99.90
70074;DHT22;57445;51.058;3.698;2022-12-07T02:39:52;7.30;99.90
70074;DHT22;57445;51.058;3.698;2022-12-07T02:42:24;7.30;99.90
70074;DHT22;57445;51.058;3.698;2022-12-07T02:44:55;7.00;99.90
70074;DHT22;57445;51.058;3.698;2022-12-07T02:47:25;6.80;99.90
70074;DHT22;57445;51.058;3.698;2022-12-07T02:49:53;6.70;99.90
70074;DHT22;57445;51.058;3.698;2022-12-07T02:52:25;6.90;99.90
70074;DHT22;57445;51.058;3.698;2022-12-07T02:54:53;7.20;99.90
70074;DHT22;57445;51.058;3.698;2022-12-07T02:57:35;7.40;99.90
70074;DHT22;57445;51.058;3.698;2022-12-07T03:00:08;7.70;99.90
70074;DHT22;57445;51.058;3.698;2022-12-07T03:02:48;7.60;99.90
70074;DHT22;57445;51.058;3.698;2022-12-07T03:05:46;7.70;99.90
70074;DHT22;57445;51.058;3.698;2022-12-07T03:08:23;7.80;99.90
70074;DHT22;57445;51.058;3.698;2022-12-07T03:10:56;7.90;99.90
70074;DHT22;57445;51.058;3.698;2022-12-07T03:13:30;7.80;99.90
70074;DHT22;57445;51.058;3.698;2022-12-07T03:16:05;7.70;99.90
70074;DHT22;57445;51.058;3.698;2022-12-07T03:18:38;7.80;99.90
70074;DHT22;57445;51.058;3.698;2022-12-07T03:21:11;7.90;99.90
70074;DHT22;57445;51.058;3.698;2022-12-07T03:23:44;8.00;99.90
70074;DHT22;57445;51.058;3.698;2022-12-07T03:26:18;7.90;99.90
70074;DHT22;57445;51.058;3.698;2022-12-07T03:28:55;7.60;99.90
70074;DHT22;57445;51.058;3.698;2022-12-07T03:31:29;7.30;99.90
70074;DHT22;57445;51.058;3.698;2022-12-07T03:34:04;6.90;99.90
70074;DHT22;57445;51.058;3.698;2022-12-07T03:36:37;6.70;99.90
70074;DHT22;57445;51.058;3.698;2022-12-07T03:39:16;6.40;99.90
70074;DHT22;57445;51.058;3.698;2022-12-07T03:41:52;6.30;99.90
70074;DHT22;57445;51.058;3.698;2022-12-07T03:44:20;6.50;99.90
70074;DHT22;57445;51.058;3.698;2022-12-07T03:46:54;6.40;99.90
70074;DHT22;57445;51.058;3.698;2022-12-07T03:49:32;6.40;99.90
70074;DHT22;57445;51.058;3.698;2022-12-07T03:52:11;6.40;99.90
70074;DHT22;57445;51.058;3.698;2022-12-07T03:54:43;6.50;99.90
70074;DHT22;57445;51.058;3.698;2022-12-07T03:57:13;6.40;99.90
70074;DHT22;57445;51.058;3.698;2022-12-07T03:59:42;6.40;99.90
70074;DHT22;57445;51.058;3.698;2022-12-07T04:02:13;6.50;99.90
70074;DHT22;57445;51.058;3.698;2022-12-07T04:04:42;6.50;99.90
70074;DHT22;57445;51.058;3.698;2022-12-07T04:07:10;6.50;99.90
70074;DHT22;57445;51.058;3.698;2022-12-07T04:09:44;6.50;99.90
70074;DHT22;57445;51.058;3.698;2022-12-07T04:12:17;6.50;99.90
70074;DHT22;57445;51.058;3.698;2022-12-07T04:14:44;6.70;99.90
70074;DHT22;57445;51.058;3.698;2022-12-07T04:17:14;6.70;99.90
70074;DHT22;57445;51.058;3.698;2022-12-07T04:19:42;7.10;99.90
70074;DHT22;57445;51.058;3.698;2022-12-07T04:22:10;6.80;99.90
70074;DHT22;57445;51.058;3.698;2022-12-07T04:24:38;6.60;99.90
70074;DHT22;57445;51.058;3.698;2022-12-07T04:27:06;6.30;99.90
70074;DHT22;57445;51.058;3.698;2022-12-07T04:29:33;6.10;99.90
70074;DHT22;57445;51.058;3.698;2022-12-07T04:32:06;6.20;99.90
70074;DHT22;57445;51.058;3.698;2022-12-07T04:34:36;6.20;99.90
70074;DHT22;57445;51.058;3.698;2022-12-07T04:37:03;6.30;99.90
70074;DHT22;57445;51.058;3.698;2022-12-07T04:39:36;6.60;99.90
70074;DHT22;57445;51.058;3.698;2022-12-07T04:42:04;6.80;99.90
70074;DHT22;57445;51.058;3.698;2022-12-07T04:44:32;6.90;99.90
70074;DHT22;57445;51.058;3.698;2022-12-07T04:47:00;7.00;99.90
70074;DHT22;57445;51.058;3.698;2022-12-07T04:49:31;6.80;99.90
70074;DHT22;57445;51.058;3.698;2022-12-07T04:52:01;6.60;99.90
70074;DHT22;57445;51.058;3.698;2022-12-07T04:54:58;6.20;99.90
70074;DHT22;57445;51.058;3.698;2022-12-07T04:57:26;6.40;99.90
70074;DHT22;57445;51.058;3.698;2022-12-07T04:59:58;6.70;99.90
70074;DHT22;57445;51.058;3.698;2022-12-07T05:02:26;7.00;99.90
70074;DHT22;57445;51.058;3.698;2022-12-07T05:04:53;7.60;99.90
70074;DHT22;57445;51.058;3.698;2022-12-07T05:07:23;7.00;99.90
70074;DHT22;57445;51.058;3.698;2022-12-07T05:09:51;6.30;99.90
70074;DHT22;57445;51.058;3.698;2022-12-07T05:12:23;6.60;99.90
70074;DHT22;57445;51.058;3.698;2022-12-07T05:14:51;6.50;99.90
70074;DHT22;57445;51.058;3.698;2022-12-07T05:17:23;6.80;99.90
70074;DHT22;57445;51.058;3.698;2022-12-07T05:19:55;6.80;99.90
70074;DHT22;57445;51.058;3.698;2022-12-07T05:22:24;7.00;99.90
70074;DHT22;57445;51.058;3.698;2022-12-07T05:24:58;7.10;99.90
70074;DHT22;57445;51.058;3.698;2022-12-07T05:27:30;6.90;99.90
70074;DHT22;57445;51.058;3.698;2022-12-07T05:30:03;6.60;99.90
70074;DHT22;57445;51.058;3.698;2022-12-07T05:32:35;6.60;99.90
70074;DHT22;57445;51.058;3.698;2022-12-07T05:35:08;7.00;99.90
70074;DHT22;57445;51.058;3.698;2022-12-07T05:37:37;6.80;99.90
70074;DHT22;57445;51.058;3.698;2022-12-07T05:40:06;6.90;99.90
70074;DHT22;57445;51.058;3.698;2022-12-07T05:42:34;6.90;99.90
70074;DHT22;57445;51.058;3.698;2022-12-07T05:45:02;6.80;99.90
70074;DHT22;57445;51.058;3.698;2022-12-07T05:47:31;6.80;99.90
70074;DHT22;57445;51.058;3.698;2022-12-07T05:50:04;6.90;99.90
70074;DHT22;57445;51.058;3.698;2022-12-07T05:52:33;6.80;99.90
70074;DHT22;57445;51.058;3.698;2022-12-07T05:55:03;6.80;99.90
70074;DHT22;57445;51.058;3.698;2022-12-07T05:57:30;6.70;99.90
70074;DHT22;57445;51.058;3.698;2022-12-07T05:59:59;6.60;99.90
70074;DHT22;57445;51.058;3.698;2022-12-07T06:02:26;6.70;99.90
70074;DHT22;57445;51.058;3.698;2022-12-07T06:04:54;6.80;99.90
70074;DHT22;57445;51.058;3.698;2022-12-07T06:07:21;6.80;99.90
70074;DHT22;57445;51.058;3.698;2022-12-07T06:09:49;6.90;99.90
70074;DHT22;57445;51.058;3.698;2022-12-07T06:12:18;7.00;99.90
70074;DHT22;57445;51.058;3.698;2022-12-07T06:15:00;7.40;99.90
70074;DHT22;57445;51.058;3.698;2022-12-07T06:17:29;7.10;99.90
70074;DHT22;57445;51.058;3.698;2022-12-07T06:19:56;6.70;99.90
70074;DHT22;57445;51.058;3.698;2022-12-07T06:22:24;6.60;99.90
70074;DHT22;57445;51.058;3.698;2022-12-07T06:24:52;6.60;99.90
70074;DHT22;57445;51.058;3.698;2022-12-07T06:27:25;6.70;99.90
70074;DHT22;57445;51.058;3.698;2022-12-07T06:29:58;6.70;99.90
70074;DHT22;57445;51.058;3.698;2022-12-07T06:32:27;6.80;99.90
70074;DHT22;57445;51.058;3.698;2022-12-07T06:34:54;7.00;99.90
70074;DHT22;57445;51.058;3.698;2022-12-07T06:37:23;7.00;99.90
70074;DHT22;57445;51.058;3.698;2022-12-07T06:39:51;7.10;99.90
70074;DHT22;57445;51.058;3.698;2022-12-07T06:42:18;7.00;99.90
70074;DHT22;57445;51.058;3.698;2022-12-07T06:44:48;6.60;99.90
70074;DHT22;57445;51.058;3.698;2022-12-07T06:47:15;6.20;99.90
70074;DHT22;57445;51.058;3.698;2022-12-07T06:49:43;6.00;99.90
70074;DHT22;57445;51.058;3.698;2022-12-07T06:52:11;6.10;99.90
70074;DHT22;57445;51.058;3.698;2022-12-07T06:54:39;6.10;99.90
70074;DHT22;57445;51.058;3.698;2022-12-07T06:57:15;6.10;99.90
70074;DHT22;57445;51.058;3.698;2022-12-07T06:59:43;6.30;99.90
70074;DHT22;57445;51.058;3.698;2022-12-07T07:02:12;6.40;99.90
70074;DHT22;57445;51.058;3.698;2022-12-07T07:04:39;6.50;99.90
70074;DHT22;57445;51.058;3.698;2022-12-07T07:07:07;6.80;99.90
70074;DHT22;57445;51.058;3.698;2022-12-07T07:09:35;6.80;99.90
70074;DHT22;57445;51.058;3.698;2022-12-07T07:12:07;6.90;99.90
70074;DHT22;57445;51.058;3.698;2022-12-07T07:14:35;7.20;99.90
70074;DHT22;57445;51.058;3.698;2022-12-07T07:17:03;7.20;99.90
70074;DHT22;57445;51.058;3.698;2022-12-07T07:19:36;7.30;99.90
70074;DHT22;57445;51.058;3.698;2022-12-07T07:22:04;7.50;99.90
70074;DHT22;57445;51.058;3.698;2022-12-07T07:24:36;7.10;99.90
70074;DHT22;57445;51.058;3.698;2022-12-07T07:27:04;6.80;99.90
70074;DHT22;57445;51.058;3.698;2022-12-07T07:29:32;6.90;99.90
70074;DHT22;57445;51.058;3.698;2022-12-07T07:31:59;6.80;99.90
70074;DHT22;57445;51.058;3.698;2022-12-07T07:34:27;6.40;99.90
70074;DHT22;57445;51.058;3.698;2022-12-07T07:37:01;6.40;99.90
70074;DHT22;57445;51.058;3.698;2022-12-07T07:39:33;6.50;99.90
70074;DHT22;57445;51.058;3.698;2022-12-07T07:42:01;6.70;99.90
70074;DHT22;57445;51.058;3.698;2022-12-07T07:44:29;6.90;99.90
70074;DHT22;57445;51.058;3.698;2022-12-07T07:46:56;7.00;99.90
70074;DHT22;57445;51.058;3.698;2022-12-07T07:49:29;7.00;99.90
70074;DHT22;57445;51.058;3.698;2022-12-07T07:51:56;7.20;99.90
70074;DHT22;57445;51.058;3.698;2022-12-07T07:54:25;7.30;99.90
70074;DHT22;57445;51.058;3.698;2022-12-07T07:56:53;7.30;99.90
70074;DHT22;57445;51.058;3.698;2022-12-07T07:59:21;7.30;99.90
70074;DHT22;57445;51.058;3.698;2022-12-07T08:01:48;7.40;99.90
70074;DHT22;57445;51.058;3.698;2022-12-07T08:04:16;7.40;99.90
70074;DHT22;57445;51.058;3.698;2022-12-07T08:06:43;7.50;99.90
70074;DHT22;57445;51.058;3.698;2022-12-07T08:09:12;7.40;99.90
70074;DHT22;57445;51.058;3.698;2022-12-07T08:11:41;7.30;99.90
70074;DHT22;57445;51.058;3.698;2022-12-07T08:14:10;7.50;99.90
70074;DHT22;57445;51.058;3.698;2022-12-07T08:16:38;7.10;99.90
70074;DHT22;57445;51.058;3.698;2022-12-07T08:19:05;7.10;99.90
70074;DHT22;57445;51.058;3.698;2022-12-07T08:21:37;7.10;99.90
70074;DHT22;57445;51.058;3.698;2022-12-07T08:24:06;7.10;99.90
70074;DHT22;57445;51.058;3.698;2022-12-07T08:26:34;6.80;99.90
70074;DHT22;57445;51.058;3.698;2022-12-07T08:29:03;6.70;99.90
70074;DHT22;57445;51.058;3.698;2022-12-07T08:31:30;6.60;99.90
70074;DHT22;57445;51.058;3.698;2022-12-07T08:33:58;6.60;99.90
70074;DHT22;57445;51.058;3.698;2022-12-07T08:36:31;6.40;99.90
70074;DHT22;57445;51.058;3.698;2022-12-07T08:38:59;6.50;99.90
70074;DHT22;57445;51.058;3.698;2022-12-07T08:41:27;6.70;99.90
70074;DHT22;57445;51.058;3.698;2022-12-07T08:43:55;6.70;99.90
70074;DHT22;57445;51.058;3.698;2022-12-07T08:46:27;6.70;99.90
70074;DHT22;57445;51.058;3.698;2022-12-07T08:49:04;6.90;99.90
70074;DHT22;57445;51.058;3.698;2022-12-07T08:51:33;6.80;99.90
70074;DHT22;57445;51.058;3.698;2022-12-07T08:54:04;7.40;99.90
70074;DHT22;57445;51.058;3.698;2022-12-07T08:56:33;7.50;99.90
70074;DHT22;57445;51.058;3.698;2022-12-07T08:59:01;7.90;99.90
70074;DHT22;57445;51.058;3.698;2022-12-07T09:01:30;8.20;99.90
70074;DHT22;57445;51.058;3.698;2022-12-07T09:03:59;8.10;99.90
70074;DHT22;57445;51.058;3.698;2022-12-07T09:06:28;8.20;99.90
70074;DHT22;57445;51.058;3.698;2022-12-07T09:09:03;8.00;99.90
70074;DHT22;57445;51.058;3.698;2022-12-07T09:11:31;8.00;99.90
70074;DHT22;57445;51.058;3.698;2022-12-07T09:13:59;7.60;99.90
70074;DHT22;57445;51.058;3.698;2022-12-07T09:16:27;8.00;99.90
70074;DHT22;57445;51.058;3.698;2022-12-07T09:18:57;8.60;99.90
70074;DHT22;57445;51.058;3.698;2022-12-07T09:21:25;8.70;99.90
70074;DHT22;57445;51.058;3.698;2022-12-07T09:23:53;8.40;99.90
70074;DHT22;57445;51.058;3.698;2022-12-07T09:26:20;7.70;99.90
70074;DHT22;57445;51.058;3.698;2022-12-07T09:28:48;7.40;99.90
70074;DHT22;57445;51.058;3.698;2022-12-07T09:31:17;7.30;99.90
70074;DHT22;57445;51.058;3.698;2022-12-07T09:33:45;6.90;99.90
70074;DHT22;57445;51.058;3.698;2022-12-07T09:36:14;6.60;99.90
70074;DHT22;57445;51.058;3.698;2022-12-07T09:38:42;6.50;99.90
70074;DHT22;57445;51.058;3.698;2022-12-07T09:41:14;6.50;99.90
70074;DHT22;57445;51.058;3.698;2022-12-07T09:43:47;6.50;99.90
70074;DHT22;57445;51.058;3.698;2022-12-07T09:46:16;6.60;99.90
70074;DHT22;57445;51.058;3.698;2022-12-07T09:48:45;6.70;99.90
70074;DHT22;57445;51.058;3.698;2022-12-07T09:51:18;6.80;99.90
70074;DHT22;57445;51.058;3.698;2022-12-07T09:53:52;7.00;99.90
70074;DHT22;57445;51.058;3.698;2022-12-07T09:56:22;7.40;99.90
70074;DHT22;57445;51.058;3.698;2022-12-07T09:58:54;7.20;99.90
70074;DHT22;57445;51.058;3.698;2022-12-07T10:01:23;7.10;99.90
70074;DHT22;57445;51.058;3.698;2022-12-07T10:03:53;7.10;99.90
70074;DHT22;57445;51.058;3.698;2022-12-07T10:06:23;7.30;99.90
70074;DHT22;57445;51.058;3.698;2022-12-07T10:08:52;7.50;99.90
70074;DHT22;57445;51.058;3.698;2022-12-07T10:11:20;7.60;99.90
70074;DHT22;57445;51.058;3.698;2022-12-07T10:13:49;8.10;99.90
70074;DHT22;57445;51.058;3.698;2022-12-07T10:16:41;8.40;99.90
70074;DHT22;57445;51.058;3.698;2022-12-07T10:19:22;8.80;99.90
70074;DHT22;57445;51.058;3.698;2022-12-07T10:22:03;8.80;99.90
70074;DHT22;57445;51.058;3.698;2022-12-07T10:24:36;8.80;99.90
70074;DHT22;57445;51.058;3.698;2022-12-07T10:27:18;8.70;99.90
70074;DHT22;57445;51.058;3.698;2022-12-07T10:29:52;8.00;99.90
70074;DHT22;57445;51.058;3.698;2022-12-07T10:32:29;7.60;99.90
70074;DHT22;57445;51.058;3.698;2022-12-07T10:35:24;7.60;99.90
70074;DHT22;57445;51.058;3.698;2022-12-07T10:37:59;7.60;99.90
70074;DHT22;57445;51.058;3.698;2022-12-07T10:40:31;7.90;99.90
70074;DHT22;57445;51.058;3.698;2022-12-07T10:43:02;8.10;99.90
70074;DHT22;57445;51.058;3.698;2022-12-07T10:45:30;8.20;99.90
70074;DHT22;57445;51.058;3.698;2022-12-07T10:48:07;8.10;99.90
70074;DHT22;57445;51.058;3.698;2022-12-07T10:50:55;8.00;99.90
70074;DHT22;57445;51.058;3.698;2022-12-07T10:53:43;7.80;99.90
70074;DHT22;57445;51.058;3.698;2022-12-07T10:56:43;7.50;99.90
70074;DHT22;57445;51.058;3.698;2022-12-07T10:59:57;7.30;99.90
70074;DHT22;57445;51.058;3.698;2022-12-07T11:02:56;7.00;99.90
70074;DHT22;57445;51.058;3.698;2022-12-07T11:05:31;6.90;99.90
70074;DHT22;57445;51.058;3.698;2022-12-07T11:08:12;6.90;99.90
70074;DHT22;57445;51.058;3.698;2022-12-07T11:10:54;7.10;99.90
70074;DHT22;57445;51.058;3.698;2022-12-07T11:13:30;7.50;99.90
70074;DHT22;57445;51.058;3.698;2022-12-07T11:16:24;7.70;99.90
70074;DHT22;57445;51.058;3.698;2022-12-07T11:19:03;8.10;99.90
70074;DHT22;57445;51.058;3.698;2022-12-07T11:21:41;8.10;99.90
70074;DHT22;57445;51.058;3.698;2022-12-07T11:24:15;8.40;99.90
70074;DHT22;57445;51.058;3.698;2022-12-07T11:27:00;8.40;99.90
70074;DHT22;57445;51.058;3.698;2022-12-07T11:29:50;8.50;99.90
70074;DHT22;57445;51.058;3.698;2022-12-07T11:35:18;8.20;99.90
70074;DHT22;57445;51.058;3.698;2022-12-07T11:37:50;8.50;99.90
70074;DHT22;57445;51.058;3.698;2022-12-07T11:40:24;8.70;99.90
70074;DHT22;57445;51.058;3.698;2022-12-07T11:43:04;8.50;99.90
70074;DHT22;57445;51.058;3.698;2022-12-07T11:45:34;8.80;99.90
70074;DHT22;57445;51.058;3.698;2022-12-07T11:48:14;8.80;99.90
70074;DHT22;57445;51.058;3.698;2022-12-07T11:50:51;9.10;99.90
70074;DHT22;57445;51.058;3.698;2022-12-07T11:53:22;9.60;99.90
70074;DHT22;57445;51.058;3.698;2022-12-07T11:55:57;9.70;99.80
70074;DHT22;57445;51.058;3.698;2022-12-07T11:58:39;9.60;99.90
70074;DHT22;57445;51.058;3.698;2022-12-07T12:01:15;9.70;99.30
70074;DHT22;57445;51.058;3.698;2022-12-07T12:03:53;9.40;99.70
70074;DHT22;57445;51.058;3.698;2022-12-07T12:06:28;9.10;99.90
70074;DHT22;57445;51.058;3.698;2022-12-07T12:08:56;8.80;99.90
70074;DHT22;57445;51.058;3.698;2022-12-07T12:11:31;8.20;99.90
70074;DHT22;57445;51.058;3.698;2022-12-07T12:14:10;8.00;99.90
70074;DHT22;57445;51.058;3.698;2022-12-07T12:16:44;7.90;99.90
70074;DHT22;57445;51.058;3.698;2022-12-07T12:19:18;7.80;99.90
70074;DHT22;57445;51.058;3.698;2022-12-07T12:21:53;7.70;99.90
70074;DHT22;57445;51.058;3.698;2022-12-07T12:24:27;7.70;99.90
70074;DHT22;57445;51.058;3.698;2022-12-07T12:26:57;7.90;99.90
70074;DHT22;57445;51.058;3.698;2022-12-07T12:29:28;7.90;99.90
70074;DHT22;57445;51.058;3.698;2022-12-07T12:32:05;8.10;99.90
70074;DHT22;57445;51.058;3.698;2022-12-07T12:34:39;7.90;99.90
70074;DHT22;57445;51.058;3.698;2022-12-07T12:42:43;8.90;99.90
70074;DHT22;57445;51.058;3.698;2022-12-07T12:45:20;8.80;99.90
70074;DHT22;57445;51.058;3.698;2022-12-07T12:47:59;8.90;99.90
70074;DHT22;57445;51.058;3.698;2022-12-07T12:50:31;8.80;99.90
70074;DHT22;57445;51.058;3.698;2022-12-07T12:53:00;9.10;99.90
70074;DHT22;57445;51.058;3.698;2022-12-07T12:58:31;8.90;99.90
70074;DHT22;57445;51.058;3.698;2022-12-07T13:03:53;8.90;99.90
70074;DHT22;57445;51.058;3.698;2022-12-07T13:06:31;9.10;99.90
70074;DHT22;57445;51.058;3.698;2022-12-07T13:09:01;9.00;99.90
70074;DHT22;57445;51.058;3.698;2022-12-07T13:11:29;9.00;99.90
70074;DHT22;57445;51.058;3.698;2022-12-07T13:16:41;9.30;99.90
70074;DHT22;57445;51.058;3.698;2022-12-07T13:22:00;8.90;99.90
70074;DHT22;57445;51.058;3.698;2022-12-07T13:24:28;8.50;99.90
70074;DHT22;57445;51.058;3.698;2022-12-07T13:26:58;8.50;99.90
70074;DHT22;57445;51.058;3.698;2022-12-07T13:29:36;8.90;99.90
70074;DHT22;57445;51.058;3.698;2022-12-07T13:32:17;9.50;99.90
70074;DHT22;57445;51.058;3.698;2022-12-07T13:34:48;8.90;99.90
70074;DHT22;57445;51.058;3.698;2022-12-07T13:37:19;8.90;99.90
70074;DHT22;57445;51.058;3.698;2022-12-07T13:39:54;8.80;99.90
70074;DHT22;57445;51.058;3.698;2022-12-07T13:42:27;8.70;99.90
70074;DHT22;57445;51.058;3.698;2022-12-07T13:44:55;8.70;99.90
70074;DHT22;57445;51.058;3.698;2022-12-07T13:47:25;8.80;99.90
70074;DHT22;57445;51.058;3.698;2022-12-07T13:49:59;9.10;99.90
70074;DHT22;57445;51.058;3.698;2022-12-07T13:52:29;9.20;99.90
70074;DHT22;57445;51.058;3.698;2022-12-07T13:54:57;9.10;99.90
70074;DHT22;57445;51.058;3.698;2022-12-07T13:57:30;8.90;99.90
70074;DHT22;57445;51.058;3.698;2022-12-07T14:00:00;8.80;99.90
70074;DHT22;57445;51.058;3.698;2022-12-07T14:02:29;8.50;99.90
70074;DHT22;57445;51.058;3.698;2022-12-07T14:05:05;8.50;99.90
70074;DHT22;57445;51.058;3.698;2022-12-07T14:07:44;8.40;99.90
70074;DHT22;57445;51.058;3.698;2022-12-07T14:10:25;8.20;99.90
70074;DHT22;57445;51.058;3.698;2022-12-07T14:12:53;8.20;99.90
70074;DHT22;57445;51.058;3.698;2022-12-07T14:15:22;8.10;99.90
70074;DHT22;57445;51.058;3.698;2022-12-07T14:17:50;8.10;99.80
70074;DHT22;57445;51.058;3.698;2022-12-07T14:20:29;8.00;99.60
70074;DHT22;57445;51.058;3.698;2022-12-07T14:23:03;7.90;99.70
70074;DHT22;57445;51.058;3.698;2022-12-07T14:25:44;8.20;99.90
70074;DHT22;57445;51.058;3.698;2022-12-07T14:28:27;8.00;99.90
70074;DHT22;57445;51.058;3.698;2022-12-07T14:30:55;8.00;99.90
70074;DHT22;57445;51.058;3.698;2022-12-07T14:33:23;8.20;99.90
70074;DHT22;57445;51.058;3.698;2022-12-07T14:35:51;8.20;99.60
70074;DHT22;57445;51.058;3.698;2022-12-07T14:38:27;8.10;99.90
70074;DHT22;57445;51.058;3.698;2022-12-07T14:40:54;7.90;99.90
70074;DHT22;57445;51.058;3.698;2022-12-07T14:43:47;8.00;99.90
70074;DHT22;57445;51.058;3.698;2022-12-07T14:46:15;7.80;99.90
70074;DHT22;57445;51.058;3.698;2022-12-07T14:48:47;7.70;99.90
70074;DHT22;57445;51.058;3.698;2022-12-07T14:51:19;8.00;99.90
70074;DHT22;57445;51.058;3.698;2022-12-07T14:53:49;8.10;99.90
70074;DHT22;57445;51.058;3.698;2022-12-07T14:56:17;8.50;99.90
70074;DHT22;57445;51.058;3.698;2022-12-07T14:58:49;8.40;99.50
70074;DHT22;57445;51.058;3.698;2022-12-07T15:01:17;8.00;99.90
70074;DHT22;57445;51.058;3.698;2022-12-07T15:03:45;8.00;99.90
70074;DHT22;57445;51.058;3.698;2022-12-07T15:06:13;8.00;99.90
70074;DHT22;57445;51.058;3.698;2022-12-07T15:08:41;8.10;99.90
70074;DHT22;57445;51.058;3.698;2022-12-07T15:11:16;8.20;99.90
70074;DHT22;57445;51.058;3.698;2022-12-07T15:13:48;8.30;99.90
70074;DHT22;57445;51.058;3.698;2022-12-07T15:16:34;8.50;99.90
70074;DHT22;57445;51.058;3.698;2022-12-07T15:19:02;8.80;99.70
70074;DHT22;57445;51.058;3.698;2022-12-07T15:21:29;8.80;99.30
70074;DHT22;57445;51.058;3.698;2022-12-07T15:24:02;8.80;99.50
70074;DHT22;57445;51.058;3.698;2022-12-07T15:26:31;8.80;99.50
70074;DHT22;57445;51.058;3.698;2022-12-07T15:28:58;8.70;99.50
70074;DHT22;57445;51.058;3.698;2022-12-07T15:31:26;8.50;99.90
70074;DHT22;57445;51.058;3.698;2022-12-07T15:33:54;8.50;99.90
70074;DHT22;57445;51.058;3.698;2022-12-07T15:36:27;8.20;99.90
70074;DHT22;57445;51.058;3.698;2022-12-07T15:38:55;8.00;99.90
70074;DHT22;57445;51.058;3.698;2022-12-07T15:41:23;7.80;99.90
70074;DHT22;57445;51.058;3.698;2022-12-07T15:43:52;7.70;99.90
70074;DHT22;57445;51.058;3.698;2022-12-07T15:46:38;7.60;99.90
70074;DHT22;57445;51.058;3.698;2022-12-07T15:49:07;7.90;99.90
70074;DHT22;57445;51.058;3.698;2022-12-07T15:51:35;8.10;99.90
70074;DHT22;57445;51.058;3.698;2022-12-07T15:54:06;8.20;99.90
70074;DHT22;57445;51.058;3.698;2022-12-07T15:56:34;8.20;99.90
70074;DHT22;57445;51.058;3.698;2022-12-07T15:59:03;8.20;99.90
70074;DHT22;57445;51.058;3.698;2022-12-07T16:01:31;8.20;99.90
70074;DHT22;57445;51.058;3.698;2022-12-07T16:03:59;8.20;99.90
70074;DHT22;57445;51.058;3.698;2022-12-07T16:06:27;8.60;99.90
70074;DHT22;57445;51.058;3.698;2022-12-07T16:08:56;8.50;99.90
70074;DHT22;57445;51.058;3.698;2022-12-07T16:11:24;8.60;99.90
70074;DHT22;57445;51.058;3.698;2022-12-07T16:13:52;8.50;99.90
70074;DHT22;57445;51.058;3.698;2022-12-07T16:16:26;8.40;99.90
70074;DHT22;57445;51.058;3.698;2022-12-07T16:18:54;8.00;99.90
70074;DHT22;57445;51.058;3.698;2022-12-07T16:21:30;7.70;99.90
70074;DHT22;57445;51.058;3.698;2022-12-07T16:24:02;7.50;99.90
70074;DHT22;57445;51.058;3.698;2022-12-07T16:26:35;7.30;99.90
70074;DHT22;57445;51.058;3.698;2022-12-07T16:29:09;7.30;99.90
70074;DHT22;57445;51.058;3.698;2022-12-07T16:31:39;7.50;99.90
70074;DHT22;57445;51.058;3.698;2022-12-07T16:34:08;7.60;99.90
70074;DHT22;57445;51.058;3.698;2022-12-07T16:36:36;7.40;99.90
70074;DHT22;57445;51.058;3.698;2022-12-07T16:39:04;7.40;99.90
70074;DHT22;57445;51.058;3.698;2022-12-07T16:41:31;7.50;99.90